createdAt,value
2022-12-26T00:00:33.874Z,86.47
2022-12-26T00:01:33.735Z,86.47
2022-12-26T00:02:33.838Z,86.27
2022-12-26T00:03:33.863Z,86.27
2022-12-26T00:04:49.437Z,86.27
2022-12-26T00:05:34.683Z,86.37
2022-12-26T00:06:33.678Z,86.47
2022-12-26T00:07:33.673Z,86.57
2022-12-26T00:08:33.645Z,86.68
2022-12-26T00:09:33.628Z,86.77
2022-12-26T00:10:33.617Z,86.68
2022-12-26T00:11:33.615Z,86.68
2022-12-26T00:12:33.614Z,86.27
2022-12-26T00:13:38.613Z,86.16
2022-12-26T00:14:33.567Z,86.16
2022-12-26T00:15:33.551Z,86.47
2022-12-26T00:16:33.623Z,86.57
2022-12-26T00:17:33.542Z,86.47
2022-12-26T00:18:33.519Z,86.47
2022-12-26T00:19:33.519Z,86.16
2022-12-26T00:20:33.485Z,86.16
2022-12-26T00:21:33.472Z,86.27
2022-12-26T00:22:33.482Z,86.16
2022-12-26T00:23:33.453Z,86.16
2022-12-26T00:24:33.441Z,86.27
2022-12-26T00:25:33.418Z,86.27
2022-12-26T00:26:33.412Z,86.27
2022-12-26T00:27:33.421Z,86.02
2022-12-26T00:28:33.419Z,85.82
2022-12-26T00:29:33.370Z,85.82
2022-12-26T00:30:33.356Z,85.82
2022-12-26T00:31:33.416Z,85.92
2022-12-26T00:32:33.354Z,85.92
2022-12-26T00:33:33.318Z,85.82
2022-12-26T00:34:33.305Z,85.82
2022-12-26T00:35:33.343Z,85.72
2022-12-26T00:36:33.328Z,85.41
2022-12-26T00:37:33.285Z,85.31
2022-12-26T00:38:33.251Z,85.41
2022-12-26T00:39:33.235Z,85.51
2022-12-26T00:40:33.235Z,85.31
2022-12-26T00:41:33.213Z,85.21
2022-12-26T00:42:33.237Z,85.41
2022-12-26T00:43:33.184Z,85.51
2022-12-26T00:44:33.176Z,85.51
2022-12-26T00:45:33.162Z,85.61
2022-12-26T00:46:33.201Z,85.61
2022-12-26T00:47:33.134Z,85.61
2022-12-26T00:48:33.134Z,85.61
2022-12-26T00:50:11.405Z,85.51
2022-12-26T00:50:35.085Z,85.51
2022-12-26T00:51:33.103Z,85.41
2022-12-26T00:52:33.076Z,85.41
2022-12-26T00:53:33.080Z,85.31
2022-12-26T00:54:33.044Z,85.11
2022-12-26T00:55:33.035Z,84.76
2022-12-26T00:56:33.019Z,84.76
2022-12-26T00:57:33.003Z,85.11
2022-12-26T00:58:33.002Z,85.00
2022-12-26T00:59:32.985Z,85.31
2022-12-26T01:00:33.017Z,85.31
2022-12-26T01:01:33.166Z,85.31
2022-12-26T01:02:32.996Z,85.31
2022-12-26T01:03:32.948Z,85.21
2022-12-26T01:04:32.915Z,85.21
2022-12-26T01:05:32.902Z,85.31
2022-12-26T01:06:32.880Z,85.51
2022-12-26T01:07:32.894Z,85.31
2022-12-26T01:08:32.879Z,85.41
2022-12-26T01:09:32.850Z,85.41
2022-12-26T01:10:32.827Z,85.31
2022-12-26T01:11:32.825Z,85.41
2022-12-26T01:12:32.814Z,85.41
2022-12-26T01:13:32.817Z,85.51
2022-12-26T01:14:32.782Z,85.51
2022-12-26T01:15:32.781Z,85.41
2022-12-26T01:16:32.899Z,85.41
2022-12-26T01:17:32.743Z,85.51
2022-12-26T01:18:32.740Z,85.51
2022-12-26T01:19:32.724Z,85.41
2022-12-26T01:20:32.702Z,85.21
2022-12-26T01:21:32.689Z,85.00
2022-12-26T01:22:32.681Z,85.21
2022-12-26T01:23:32.697Z,85.21
2022-12-26T01:24:32.654Z,85.41
2022-12-26T01:25:32.642Z,85.31
2022-12-26T01:26:32.648Z,85.51
2022-12-26T01:27:32.647Z,85.51
2022-12-26T01:28:32.633Z,85.41
2022-12-26T01:29:32.594Z,85.41
2022-12-26T01:30:32.574Z,85.51
2022-12-26T01:31:32.620Z,85.41
2022-12-26T01:32:32.553Z,85.21
2022-12-26T01:33:32.575Z,85.00
2022-12-26T01:34:32.534Z,84.90
2022-12-26T01:35:32.511Z,84.90
2022-12-26T01:36:32.496Z,85.00
2022-12-26T01:37:32.487Z,85.21
2022-12-26T01:38:32.490Z,85.21
2022-12-26T01:39:32.477Z,85.00
2022-12-26T01:40:32.445Z,84.80
2022-12-26T01:41:32.433Z,84.59
2022-12-26T01:42:32.420Z,84.59
2022-12-26T01:43:32.437Z,84.59
2022-12-26T01:44:32.390Z,84.70
2022-12-26T01:45:32.544Z,84.59
2022-12-26T01:46:32.391Z,84.59
2022-12-26T01:47:32.353Z,84.59
2022-12-26T01:48:32.344Z,84.59
2022-12-26T01:49:32.344Z,84.50
2022-12-26T01:50:32.334Z,84.39
2022-12-26T01:51:32.303Z,84.25
2022-12-26T01:52:32.312Z,84.50
2022-12-26T01:53:32.275Z,84.50
2022-12-26T01:54:41.011Z,84.39
2022-12-26T01:55:32.274Z,84.29
2022-12-26T01:56:32.236Z,84.29
2022-12-26T01:57:32.222Z,84.50
2022-12-26T01:58:32.207Z,84.39
2022-12-26T01:59:32.217Z,84.25
2022-12-26T02:00:32.188Z,84.35
2022-12-26T02:01:32.410Z,84.25
2022-12-26T02:02:32.267Z,84.05
2022-12-26T02:03:32.144Z,84.15
2022-12-26T02:04:32.145Z,84.05
2022-12-26T02:05:32.121Z,84.15
2022-12-26T02:06:32.107Z,84.25
2022-12-26T02:07:32.094Z,83.95
2022-12-26T02:08:32.090Z,84.05
2022-12-26T02:09:32.102Z,83.74
2022-12-26T02:10:32.053Z,83.54
2022-12-26T02:11:32.057Z,83.74
2022-12-26T02:12:36.540Z,83.95
2022-12-26T02:13:32.014Z,84.05
2022-12-26T02:14:32.052Z,84.05
2022-12-26T02:15:31.989Z,83.84
2022-12-26T02:16:32.038Z,83.84
2022-12-26T02:17:31.984Z,83.64
2022-12-26T02:18:31.958Z,83.64
2022-12-26T02:19:31.950Z,83.84
2022-12-26T02:20:31.943Z,84.05
2022-12-26T02:21:31.906Z,83.95
2022-12-26T02:22:31.895Z,83.84
2022-12-26T02:23:31.905Z,83.95
2022-12-26T02:24:31.889Z,83.84
2022-12-26T02:25:31.860Z,83.74
2022-12-26T02:26:31.840Z,83.95
2022-12-26T02:27:31.865Z,83.84
2022-12-26T02:28:31.817Z,83.84
2022-12-26T02:29:31.819Z,83.95
2022-12-26T02:30:31.789Z,83.95
2022-12-26T02:31:31.895Z,83.95
2022-12-26T02:32:31.768Z,84.05
2022-12-26T02:33:31.751Z,83.95
2022-12-26T02:34:31.784Z,83.95
2022-12-26T02:35:31.731Z,84.05
2022-12-26T02:36:31.712Z,84.19
2022-12-26T02:37:31.702Z,84.29
2022-12-26T02:38:31.685Z,84.50
2022-12-26T02:39:45.625Z,84.50
2022-12-26T02:40:32.660Z,84.45
2022-12-26T02:41:31.647Z,84.25
2022-12-26T02:42:31.664Z,83.74
2022-12-26T02:43:31.642Z,83.74
2022-12-26T02:44:31.624Z,83.84
2022-12-26T02:45:31.767Z,83.84
2022-12-26T02:46:31.641Z,83.95
2022-12-26T02:47:31.580Z,83.95
2022-12-26T02:48:31.566Z,84.05
2022-12-26T02:49:31.554Z,83.95
2022-12-26T02:50:31.537Z,83.95
2022-12-26T02:51:31.521Z,83.95
2022-12-26T02:52:31.508Z,83.84
2022-12-26T02:53:31.491Z,83.74
2022-12-26T02:54:31.476Z,83.64
2022-12-26T02:55:31.474Z,83.74
2022-12-26T02:56:31.452Z,83.74
2022-12-26T02:57:31.443Z,83.74
2022-12-26T02:58:31.444Z,83.74
2022-12-26T02:59:54.121Z,83.95
2022-12-26T03:00:32.413Z,83.84
2022-12-26T03:01:31.534Z,83.95
2022-12-26T03:02:31.581Z,83.95
2022-12-26T03:03:31.382Z,83.95
2022-12-26T03:04:31.350Z,84.05
2022-12-26T03:05:31.355Z,84.05
2022-12-26T03:06:31.324Z,84.05
2022-12-26T03:07:31.316Z,84.05
2022-12-26T03:08:31.297Z,84.15
2022-12-26T03:09:31.300Z,84.15
2022-12-26T03:10:31.282Z,84.45
2022-12-26T03:11:31.261Z,84.56
2022-12-26T03:12:31.244Z,84.66
2022-12-26T03:13:31.231Z,84.45
2022-12-26T03:14:31.217Z,84.25
2022-12-26T03:15:31.243Z,83.84
2022-12-26T03:16:31.265Z,83.29
2022-12-26T03:17:31.179Z,83.20
2022-12-26T03:18:59.201Z,83.09
2022-12-26T03:19:31.152Z,83.29
2022-12-26T03:20:31.171Z,83.29
2022-12-26T03:21:31.126Z,83.29
2022-12-26T03:22:31.118Z,83.20
2022-12-26T03:23:31.106Z,83.29
2022-12-26T03:24:31.089Z,83.40
2022-12-26T03:25:31.097Z,83.29
2022-12-26T03:26:31.081Z,83.20
2022-12-26T03:27:31.057Z,83.20
2022-12-26T03:28:31.035Z,83.20
2022-12-26T03:29:31.033Z,83.09
2022-12-26T03:30:31.080Z,83.20
2022-12-26T03:31:31.021Z,83.70
2022-12-26T03:32:30.984Z,83.81
2022-12-26T03:33:30.972Z,83.91
2022-12-26T03:34:30.955Z,84.25
2022-12-26T03:35:30.957Z,84.25
2022-12-26T03:36:30.928Z,84.05
2022-12-26T03:37:48.848Z,83.91
2022-12-26T03:38:30.907Z,83.60
2022-12-26T03:39:30.889Z,83.60
2022-12-26T03:40:30.896Z,83.60
2022-12-26T03:41:30.871Z,83.60
2022-12-26T03:42:30.855Z,83.74
2022-12-26T03:43:30.849Z,83.81
2022-12-26T03:44:30.831Z,84.05
2022-12-26T03:45:30.826Z,83.95
2022-12-26T03:46:30.860Z,84.05
2022-12-26T03:47:30.811Z,84.15
2022-12-26T03:48:30.784Z,84.25
2022-12-26T03:49:30.764Z,84.05
2022-12-26T03:50:30.761Z,84.05
2022-12-26T03:51:30.732Z,84.15
2022-12-26T03:52:30.723Z,84.15
2022-12-26T03:53:30.711Z,83.84
2022-12-26T03:54:30.695Z,83.84
2022-12-26T03:55:30.709Z,83.84
2022-12-26T03:56:32.736Z,83.74
2022-12-26T03:57:30.668Z,83.74
2022-12-26T03:58:30.642Z,83.95
2022-12-26T03:59:30.757Z,84.15
2022-12-26T04:00:30.647Z,84.35
2022-12-26T04:01:30.711Z,84.45
2022-12-26T04:02:30.842Z,84.45
2022-12-26T04:03:30.701Z,84.35
2022-12-26T04:04:30.571Z,84.59
2022-12-26T04:05:30.556Z,84.80
2022-12-26T04:06:30.558Z,85.00
2022-12-26T04:07:30.531Z,84.90
2022-12-26T04:08:30.515Z,84.59
2022-12-26T04:09:30.501Z,84.70
2022-12-26T04:10:30.489Z,84.59
2022-12-26T04:11:30.489Z,84.56
2022-12-26T04:12:30.455Z,84.59
2022-12-26T04:13:30.446Z,84.25
2022-12-26T04:14:30.436Z,84.25
2022-12-26T04:15:30.454Z,84.45
2022-12-26T04:16:30.424Z,84.50
2022-12-26T04:17:30.394Z,84.59
2022-12-26T04:18:30.379Z,84.59
2022-12-26T04:19:30.396Z,84.59
2022-12-26T04:20:30.357Z,84.39
2022-12-26T04:21:30.370Z,84.50
2022-12-26T04:22:30.326Z,84.50
2022-12-26T04:23:30.332Z,84.25
2022-12-26T04:24:30.305Z,84.35
2022-12-26T04:25:49.781Z,84.59
2022-12-26T04:26:30.299Z,84.70
2022-12-26T04:27:30.272Z,84.80
2022-12-26T04:28:30.282Z,84.80
2022-12-26T04:29:30.245Z,84.80
2022-12-26T04:30:30.226Z,84.80
2022-12-26T04:31:30.352Z,84.90
2022-12-26T04:32:30.197Z,84.90
2022-12-26T04:33:30.183Z,84.90
2022-12-26T04:34:30.170Z,84.90
2022-12-26T04:35:30.187Z,85.00
2022-12-26T04:36:30.180Z,85.11
2022-12-26T04:37:30.162Z,85.00
2022-12-26T04:38:30.178Z,85.00
2022-12-26T04:39:30.158Z,85.21
2022-12-26T04:40:30.177Z,85.35
2022-12-26T04:41:30.182Z,85.21
2022-12-26T04:42:30.067Z,85.31
2022-12-26T04:43:49.152Z,85.21
2022-12-26T04:44:31.065Z,85.21
2022-12-26T04:45:30.065Z,85.11
2022-12-26T04:46:30.138Z,85.21
2022-12-26T04:47:30.006Z,85.21
2022-12-26T04:48:30.012Z,85.11
2022-12-26T04:49:29.979Z,85.00
2022-12-26T04:50:29.962Z,84.90
2022-12-26T04:51:29.981Z,85.11
2022-12-26T04:52:29.947Z,85.21
2022-12-26T04:53:29.929Z,85.31
2022-12-26T04:54:29.931Z,85.41
2022-12-26T04:55:29.902Z,85.41
2022-12-26T04:56:29.899Z,85.41
2022-12-26T04:57:29.873Z,85.11
2022-12-26T04:58:29.864Z,85.00
2022-12-26T04:59:29.849Z,85.11
2022-12-26T05:00:29.839Z,85.21
2022-12-26T05:01:29.953Z,85.11
2022-12-26T05:02:29.914Z,85.21
2022-12-26T05:03:29.900Z,85.31
2022-12-26T05:04:29.778Z,85.41
2022-12-26T05:05:29.774Z,85.41
2022-12-26T05:06:29.753Z,85.41
2022-12-26T05:07:29.783Z,85.31
2022-12-26T05:08:29.735Z,85.31
2022-12-26T05:09:29.724Z,85.51
2022-12-26T05:10:29.726Z,85.51
2022-12-26T05:11:29.696Z,85.66
2022-12-26T05:12:29.695Z,85.66
2022-12-26T05:13:29.663Z,85.72
2022-12-26T05:14:29.657Z,85.66
2022-12-26T05:15:29.638Z,85.75
2022-12-26T05:16:29.723Z,85.86
2022-12-26T05:17:29.633Z,85.86
2022-12-26T05:18:29.597Z,85.86
2022-12-26T05:19:29.582Z,86.06
2022-12-26T05:20:29.574Z,86.06
2022-12-26T05:21:29.561Z,86.06
2022-12-26T05:22:29.570Z,85.96
2022-12-26T05:23:29.556Z,86.06
2022-12-26T05:24:29.531Z,86.06
2022-12-26T05:25:29.522Z,85.86
2022-12-26T05:26:29.498Z,85.66
2022-12-26T05:27:29.496Z,85.55
2022-12-26T05:28:29.468Z,85.66
2022-12-26T05:29:29.467Z,85.66
2022-12-26T05:30:29.445Z,85.55
2022-12-26T05:31:35.019Z,85.75
2022-12-26T05:32:29.439Z,85.75
2022-12-26T05:33:29.403Z,85.55
2022-12-26T05:34:29.396Z,85.66
2022-12-26T05:35:29.374Z,85.75
2022-12-26T05:36:29.367Z,85.75
2022-12-26T05:37:29.372Z,85.86
2022-12-26T05:38:29.344Z,85.96
2022-12-26T05:39:29.343Z,85.86
2022-12-26T05:40:29.329Z,85.66
2022-12-26T05:41:29.298Z,85.66
2022-12-26T05:42:29.302Z,85.55
2022-12-26T05:43:29.278Z,85.66
2022-12-26T05:44:29.262Z,85.75
2022-12-26T05:45:29.263Z,85.75
2022-12-26T05:46:29.328Z,85.75
2022-12-26T05:47:29.241Z,85.86
2022-12-26T05:48:29.229Z,85.86
2022-12-26T05:49:29.200Z,85.75
2022-12-26T05:50:29.219Z,85.35
2022-12-26T05:51:29.173Z,85.21
2022-12-26T05:52:29.221Z,85.21
2022-12-26T05:53:29.161Z,84.90
2022-12-26T05:54:29.141Z,84.80
2022-12-26T05:55:29.139Z,85.00
2022-12-26T05:56:29.133Z,85.31
2022-12-26T05:57:29.103Z,85.55
2022-12-26T05:58:29.078Z,85.41
2022-12-26T05:59:29.061Z,85.41
2022-12-26T06:00:29.053Z,85.55
2022-12-26T06:01:29.082Z,85.31
2022-12-26T06:02:29.149Z,85.00
2022-12-26T06:03:29.063Z,85.11
2022-12-26T06:04:29.000Z,85.31
2022-12-26T06:05:28.989Z,85.41
2022-12-26T06:06:28.997Z,85.31
2022-12-26T06:07:28.970Z,85.31
2022-12-26T06:08:28.950Z,85.31
2022-12-26T06:09:28.929Z,85.21
2022-12-26T06:10:28.921Z,85.21
2022-12-26T06:11:28.963Z,85.00
2022-12-26T06:12:28.931Z,85.00
2022-12-26T06:13:28.881Z,85.00
2022-12-26T06:14:28.875Z,84.97
2022-12-26T06:15:28.852Z,84.90
2022-12-26T06:16:28.986Z,85.00
2022-12-26T06:17:28.842Z,84.97
2022-12-26T06:18:28.819Z,85.17
2022-12-26T06:19:28.813Z,85.21
2022-12-26T06:20:28.799Z,85.31
2022-12-26T06:21:28.780Z,85.31
2022-12-26T06:22:28.797Z,85.21
2022-12-26T06:23:28.750Z,85.21
2022-12-26T06:24:28.740Z,85.31
2022-12-26T06:25:28.728Z,85.51
2022-12-26T06:26:28.713Z,85.41
2022-12-26T06:27:28.733Z,85.31
2022-12-26T06:28:28.712Z,85.41
2022-12-26T06:29:28.670Z,85.61
2022-12-26T06:30:28.666Z,85.72
2022-12-26T06:31:28.685Z,85.82
2022-12-26T06:32:28.638Z,85.86
2022-12-26T06:33:28.633Z,85.82
2022-12-26T06:34:28.608Z,85.82
2022-12-26T06:35:28.594Z,85.92
2022-12-26T06:36:28.587Z,85.96
2022-12-26T06:37:28.568Z,85.96
2022-12-26T06:38:28.573Z,85.92
2022-12-26T06:39:28.546Z,86.02
2022-12-26T06:40:28.535Z,86.16
2022-12-26T06:41:28.515Z,86.13
2022-12-26T06:42:28.503Z,86.06
2022-12-26T06:43:28.542Z,85.92
2022-12-26T06:44:28.483Z,86.02
2022-12-26T06:45:28.465Z,86.02
2022-12-26T06:46:28.486Z,86.06
2022-12-26T06:47:28.444Z,85.96
2022-12-26T06:48:28.440Z,85.82
2022-12-26T06:49:32.751Z,85.82
2022-12-26T06:50:28.404Z,85.41
2022-12-26T06:51:28.388Z,85.31
2022-12-26T06:52:28.376Z,85.21
2022-12-26T06:53:28.386Z,85.21
2022-12-26T06:54:28.354Z,85.51
2022-12-26T06:55:28.333Z,85.72
2022-12-26T06:56:28.337Z,85.82
2022-12-26T06:57:28.319Z,86.02
2022-12-26T06:58:28.319Z,86.02
2022-12-26T06:59:28.311Z,86.33
2022-12-26T07:00:28.319Z,86.83
2022-12-26T07:01:28.495Z,86.94
2022-12-26T07:02:28.313Z,87.04
2022-12-26T07:03:28.252Z,87.35
2022-12-26T07:04:28.220Z,87.65
2022-12-26T07:05:28.206Z,87.90
2022-12-26T07:06:28.239Z,88.00
2022-12-26T07:07:28.179Z,88.31
2022-12-26T07:08:28.191Z,88.81
2022-12-26T07:09:33.378Z,89.01
2022-12-26T07:10:28.155Z,89.26
2022-12-26T07:11:28.129Z,89.47
2022-12-26T07:12:28.114Z,89.57
2022-12-26T07:13:28.126Z,89.87
2022-12-26T07:14:28.112Z,90.18
2022-12-26T07:15:28.091Z,90.38
2022-12-26T07:16:28.154Z,90.48
2022-12-26T07:17:28.058Z,90.89
2022-12-26T07:18:28.054Z,90.99
2022-12-26T07:19:28.020Z,91.20
2022-12-26T07:20:28.009Z,91.20
2022-12-26T07:21:27.994Z,91.30
2022-12-26T07:22:27.982Z,91.30
2022-12-26T07:23:27.989Z,91.50
2022-12-26T07:24:27.965Z,91.40
2022-12-26T07:25:27.945Z,91.30
2022-12-26T07:26:27.933Z,91.61
2022-12-26T07:27:27.925Z,91.81
2022-12-26T07:28:27.922Z,91.85
2022-12-26T07:29:27.892Z,92.26
2022-12-26T07:30:27.881Z,92.36
2022-12-26T07:31:28.002Z,92.46
2022-12-26T07:32:27.855Z,92.87
2022-12-26T07:33:27.962Z,93.28
2022-12-26T07:34:31.390Z,93.38
2022-12-26T07:35:27.814Z,93.59
2022-12-26T07:36:27.803Z,93.69
2022-12-26T07:37:27.797Z,94.20
2022-12-26T07:38:27.775Z,94.55
2022-12-26T07:39:27.771Z,94.95
2022-12-26T07:40:27.747Z,95.36
2022-12-26T07:41:27.746Z,95.67
2022-12-26T07:42:27.733Z,95.87
2022-12-26T07:43:27.710Z,96.18
2022-12-26T07:44:27.712Z,96.59
2022-12-26T07:45:27.720Z,97.04
2022-12-26T07:46:27.763Z,97.14
2022-12-26T07:47:27.675Z,97.14
2022-12-26T07:48:27.654Z,97.34
2022-12-26T07:49:27.645Z,97.45
2022-12-26T07:50:27.615Z,97.55
2022-12-26T07:51:27.631Z,97.55
2022-12-26T07:52:27.607Z,97.34
2022-12-26T07:53:27.578Z,97.55
2022-12-26T07:54:27.581Z,97.55
2022-12-26T07:55:27.552Z,97.65
2022-12-26T07:56:27.543Z,97.75
2022-12-26T07:57:48.118Z,97.86
2022-12-26T07:58:28.512Z,98.06
2022-12-26T07:59:27.518Z,98.06
2022-12-26T08:00:27.581Z,98.06
2022-12-26T08:01:27.579Z,98.16
2022-12-26T08:02:27.746Z,98.52
2022-12-26T08:03:27.556Z,98.61
2022-12-26T08:04:27.452Z,98.68
2022-12-26T08:05:27.423Z,98.88
2022-12-26T08:06:27.425Z,99.02
2022-12-26T08:07:27.407Z,99.33
2022-12-26T08:08:27.391Z,99.43
2022-12-26T08:09:27.388Z,99.43
2022-12-26T08:10:27.418Z,99.95
2022-12-26T08:11:27.343Z,99.99
2022-12-26T08:12:27.338Z,99.99
2022-12-26T08:13:27.317Z,99.99
2022-12-26T08:14:27.325Z,99.99
2022-12-26T08:15:27.297Z,99.99
2022-12-26T08:16:27.349Z,99.99
2022-12-26T08:17:27.268Z,99.99
2022-12-26T08:18:27.288Z,99.99
2022-12-26T08:19:27.277Z,99.99
2022-12-26T08:20:27.262Z,99.99
2022-12-26T08:21:27.227Z,99.99
2022-12-26T08:22:27.203Z,99.99
2022-12-26T08:23:27.187Z,99.99
2022-12-26T08:24:27.195Z,99.99
2022-12-26T08:25:27.158Z,99.99
2022-12-26T08:26:27.150Z,99.99
2022-12-26T08:27:27.135Z,99.99
2022-12-26T08:28:27.125Z,99.99
2022-12-26T08:29:27.125Z,99.99
2022-12-26T08:30:27.235Z,99.99
2022-12-26T08:31:27.074Z,99.99
2022-12-26T08:32:27.063Z,99.99
2022-12-26T08:33:27.056Z,99.99
2022-12-26T08:34:27.058Z,99.99
2022-12-26T08:35:27.076Z,99.99
2022-12-26T08:36:27.036Z,99.99
2022-12-26T08:37:27.005Z,99.99
2022-12-26T08:38:31.565Z,99.99
2022-12-26T08:39:26.987Z,99.99
2022-12-26T08:40:42.742Z,99.99
2022-12-26T08:41:26.950Z,99.99
2022-12-26T08:42:26.946Z,99.99
2022-12-26T08:44:28.316Z,99.99
2022-12-26T08:45:26.890Z,99.99
2022-12-26T08:46:26.888Z,99.99
2022-12-26T08:47:26.865Z,99.99
2022-12-26T08:48:26.854Z,99.99
2022-12-26T08:49:26.865Z,99.99
2022-12-26T08:50:26.838Z,99.99
2022-12-26T08:51:26.842Z,99.99
2022-12-26T08:52:26.802Z,99.99
2022-12-26T08:53:26.785Z,99.99
2022-12-26T08:54:26.810Z,99.99
2022-12-26T08:55:26.755Z,99.99
2022-12-26T08:56:26.747Z,99.99
2022-12-26T08:57:26.733Z,99.99
2022-12-26T08:58:26.774Z,99.99
2022-12-26T08:59:26.701Z,99.99
2022-12-26T09:00:26.700Z,99.99
2022-12-26T09:01:27.015Z,99.99
2022-12-26T09:02:26.780Z,99.99
2022-12-26T09:03:26.736Z,99.99
2022-12-26T09:04:26.636Z,99.99
2022-12-26T09:05:26.652Z,99.99
2022-12-26T09:06:26.637Z,99.99
2022-12-26T09:07:26.619Z,99.99
2022-12-26T09:08:26.585Z,99.99
2022-12-26T09:09:26.580Z,99.99
2022-12-26T09:10:26.573Z,99.99
2022-12-26T09:11:26.551Z,99.99
2022-12-26T09:12:26.531Z,99.99
2022-12-26T09:13:26.522Z,99.99
2022-12-26T09:14:26.500Z,99.99
2022-12-26T09:15:26.507Z,99.99
2022-12-26T09:16:26.571Z,99.99
2022-12-26T09:17:26.525Z,99.99
2022-12-26T09:18:26.453Z,99.99
2022-12-26T09:19:26.433Z,99.99
2022-12-26T09:20:26.439Z,99.99
2022-12-26T09:21:26.408Z,99.99
2022-12-26T09:22:29.282Z,99.99
2022-12-26T09:23:26.401Z,99.99
2022-12-26T09:24:26.382Z,99.99
2022-12-26T09:25:26.386Z,99.99
2022-12-26T09:26:26.363Z,99.99
2022-12-26T09:27:26.327Z,99.99
2022-12-26T09:28:26.312Z,99.99
2022-12-26T09:29:26.302Z,99.99
2022-12-26T09:30:26.318Z,99.99
2022-12-26T09:31:26.326Z,99.99
2022-12-26T09:32:26.264Z,99.99
2022-12-26T09:33:26.249Z,99.99
2022-12-26T09:34:26.265Z,99.99
2022-12-26T09:35:26.240Z,99.99
2022-12-26T09:36:26.209Z,99.99
2022-12-26T09:37:26.204Z,99.99
2022-12-26T09:38:26.184Z,99.99
2022-12-26T09:39:26.206Z,99.99
2022-12-26T09:40:26.171Z,99.99
2022-12-26T09:41:26.138Z,99.99
2022-12-26T09:42:26.129Z,99.99
2022-12-26T09:43:26.117Z,99.99
2022-12-26T09:44:26.101Z,99.99
2022-12-26T09:45:26.104Z,99.99
2022-12-26T09:46:26.105Z,99.99
2022-12-26T09:47:26.065Z,99.99
2022-12-26T09:48:26.046Z,99.95
2022-12-26T09:49:26.034Z,99.99
2022-12-26T09:50:26.017Z,99.95
2022-12-26T09:51:26.021Z,99.43
2022-12-26T09:52:25.996Z,99.49
2022-12-26T09:53:25.981Z,99.49
2022-12-26T09:54:25.971Z,99.18
2022-12-26T09:55:25.976Z,99.29
2022-12-26T09:57:25.929Z,99.29
2022-12-26T09:58:25.918Z,99.29
2022-12-26T09:59:25.904Z,99.18
2022-12-26T10:00:25.888Z,99.29
2022-12-26T10:01:25.938Z,99.02
2022-12-26T10:02:25.959Z,98.77
2022-12-26T10:03:25.861Z,98.68
2022-12-26T10:04:29.594Z,98.47
2022-12-26T10:05:25.818Z,98.06
2022-12-26T10:06:25.824Z,97.96
2022-12-26T10:07:25.801Z,98.06
2022-12-26T10:08:25.777Z,97.55
2022-12-26T10:09:25.767Z,97.55
2022-12-26T10:10:25.750Z,97.45
2022-12-26T10:11:25.778Z,97.34
2022-12-26T10:12:25.725Z,96.94
2022-12-26T10:13:25.716Z,96.84
2022-12-26T10:14:25.707Z,96.89
2022-12-26T10:15:25.686Z,97.09
2022-12-26T10:16:25.770Z,96.73
2022-12-26T10:17:25.667Z,96.63
2022-12-26T10:18:25.656Z,96.59
2022-12-26T10:19:32.003Z,96.28
2022-12-26T10:20:25.637Z,96.18
2022-12-26T10:21:25.624Z,96.38
2022-12-26T10:22:25.588Z,96.08
2022-12-26T10:23:25.584Z,96.38
2022-12-26T10:24:25.566Z,96.28
2022-12-26T10:25:31.918Z,96.12
2022-12-26T10:26:26.560Z,95.77
2022-12-26T10:27:25.550Z,95.47
2022-12-26T10:28:25.513Z,95.67
2022-12-26T10:29:25.513Z,95.67
2022-12-26T10:30:25.487Z,95.67
2022-12-26T10:31:25.532Z,95.77
2022-12-26T10:32:28.123Z,95.36
2022-12-26T10:33:25.452Z,95.57
2022-12-26T10:34:25.433Z,95.67
2022-12-26T10:35:25.420Z,95.36
2022-12-26T10:36:25.421Z,95.47
2022-12-26T10:37:25.395Z,95.26
2022-12-26T10:38:27.583Z,95.36
2022-12-26T10:39:25.376Z,95.57
2022-12-26T10:40:25.355Z,95.97
2022-12-26T10:41:25.360Z,96.38
2022-12-26T10:42:25.333Z,96.43
2022-12-26T10:43:25.349Z,96.63
2022-12-26T10:44:27.834Z,96.94
2022-12-26T10:45:25.292Z,97.34
2022-12-26T10:46:25.338Z,96.94
2022-12-26T10:47:25.266Z,96.94
2022-12-26T10:48:25.254Z,96.63
2022-12-26T10:49:25.236Z,96.84
2022-12-26T10:50:27.597Z,96.84
2022-12-26T10:51:25.235Z,96.63
2022-12-26T10:52:25.204Z,96.22
2022-12-26T10:53:25.180Z,96.02
2022-12-26T10:54:25.186Z,96.02
2022-12-26T10:55:29.034Z,95.92
2022-12-26T10:56:25.178Z,96.02
2022-12-26T10:57:25.137Z,96.22
2022-12-26T10:58:25.120Z,95.81
2022-12-26T10:59:25.197Z,95.81
2022-12-26T11:00:25.096Z,95.81
2022-12-26T11:01:25.236Z,95.81
2022-12-26T11:02:25.320Z,96.12
2022-12-26T11:03:25.291Z,96.53
2022-12-26T11:05:02.245Z,97.24
2022-12-26T11:05:57.086Z,97.24
2022-12-26T11:06:26.036Z,97.65
2022-12-26T11:07:25.001Z,97.55
2022-12-26T11:08:24.990Z,97.04
2022-12-26T11:09:24.995Z,97.75
2022-12-26T11:10:24.972Z,97.55
2022-12-26T11:11:24.961Z,97.65
2022-12-26T11:12:24.959Z,97.65
2022-12-26T11:13:24.942Z,97.24
2022-12-26T11:14:28.692Z,97.34
2022-12-26T11:15:24.916Z,97.65
2022-12-26T11:16:24.943Z,97.34
2022-12-26T11:17:24.885Z,97.04
2022-12-26T11:18:24.854Z,97.34
2022-12-26T11:19:24.847Z,97.14
2022-12-26T11:20:24.839Z,97.14
2022-12-26T11:21:24.818Z,97.14
2022-12-26T11:22:24.816Z,97.45
2022-12-26T11:23:24.797Z,97.04
2022-12-26T11:24:24.781Z,97.24
2022-12-26T11:25:24.770Z,97.45
2022-12-26T11:26:24.756Z,97.24
2022-12-26T11:27:24.760Z,97.45
2022-12-26T11:28:24.730Z,97.14
2022-12-26T11:29:24.727Z,97.45
2022-12-26T11:30:24.709Z,97.55
2022-12-26T11:31:24.749Z,98.06
2022-12-26T11:32:24.695Z,98.27
2022-12-26T11:33:24.661Z,98.06
2022-12-26T11:34:24.646Z,98.06
2022-12-26T11:35:24.657Z,97.86
2022-12-26T11:36:24.626Z,97.96
2022-12-26T11:37:24.653Z,97.86
2022-12-26T11:38:24.597Z,97.55
2022-12-26T11:39:24.583Z,97.75
2022-12-26T11:40:24.571Z,97.14
2022-12-26T11:41:24.558Z,97.45
2022-12-26T11:42:24.558Z,97.34
2022-12-26T11:43:24.548Z,97.45
2022-12-26T11:44:24.521Z,97.55
2022-12-26T11:45:24.508Z,97.24
2022-12-26T11:46:24.551Z,96.73
2022-12-26T11:47:24.515Z,96.63
2022-12-26T11:48:24.481Z,96.43
2022-12-26T11:49:24.453Z,96.94
2022-12-26T11:50:24.441Z,96.38
2022-12-26T11:51:24.425Z,96.59
2022-12-26T11:52:24.434Z,96.18
2022-12-26T11:53:24.404Z,96.38
2022-12-26T11:54:24.386Z,96.59
2022-12-26T11:55:24.377Z,96.38
2022-12-26T11:56:24.361Z,96.59
2022-12-26T11:57:24.363Z,96.18
2022-12-26T11:58:24.337Z,96.28
2022-12-26T11:59:24.321Z,95.77
2022-12-26T12:00:24.318Z,96.28
2022-12-26T12:01:24.356Z,96.28
2022-12-26T12:02:24.383Z,96.28
2022-12-26T12:03:24.341Z,96.28
2022-12-26T12:04:24.266Z,96.38
2022-12-26T12:05:24.246Z,96.59
2022-12-26T12:06:24.228Z,96.59
2022-12-26T12:07:24.238Z,96.63
2022-12-26T12:08:24.208Z,96.69
2022-12-26T12:09:24.193Z,96.59
2022-12-26T12:10:24.196Z,96.18
2022-12-26T12:11:24.165Z,96.48
2022-12-26T12:12:24.169Z,96.28
2022-12-26T12:13:24.142Z,96.08
2022-12-26T12:14:24.124Z,95.97
2022-12-26T12:15:24.118Z,96.08
2022-12-26T12:16:24.132Z,96.18
2022-12-26T12:17:24.105Z,96.08
2022-12-26T12:18:24.072Z,96.08
2022-12-26T12:19:24.211Z,95.77
2022-12-26T12:20:24.051Z,95.77
2022-12-26T12:21:24.041Z,95.77
2022-12-26T12:22:24.043Z,95.67
2022-12-26T12:23:24.008Z,95.57
2022-12-26T12:24:23.999Z,95.57
2022-12-26T12:25:23.987Z,95.77
2022-12-26T12:26:23.975Z,95.57
2022-12-26T12:27:23.960Z,95.77
2022-12-26T12:28:23.965Z,95.67
2022-12-26T12:29:23.933Z,95.42
2022-12-26T12:30:23.922Z,95.73
2022-12-26T12:31:23.953Z,95.67
2022-12-26T12:32:23.891Z,95.87
2022-12-26T12:33:23.898Z,96.18
2022-12-26T12:34:23.869Z,96.28
2022-12-26T12:35:23.982Z,96.38
2022-12-26T12:36:23.839Z,96.38
2022-12-26T12:37:23.832Z,96.38
2022-12-26T12:38:23.831Z,96.38
2022-12-26T12:39:23.805Z,96.59
2022-12-26T12:40:23.794Z,96.63
2022-12-26T12:41:23.780Z,97.04
2022-12-26T12:42:23.761Z,97.14
2022-12-26T12:43:23.762Z,97.24
2022-12-26T12:44:23.737Z,97.55
2022-12-26T12:45:23.734Z,98.06
2022-12-26T12:46:23.712Z,98.27
2022-12-26T12:47:23.695Z,98.77
2022-12-26T12:48:23.703Z,98.98
2022-12-26T12:49:23.679Z,99.23
2022-12-26T12:50:23.655Z,99.43
2022-12-26T12:51:23.667Z,99.74
2022-12-26T12:52:23.637Z,99.74
2022-12-26T12:53:23.643Z,99.95
2022-12-26T12:54:23.606Z,99.99